createdAt,value
2023-03-17T00:00:15.603Z,718.00
2023-03-17T00:01:15.692Z,720.00
2023-03-17T00:02:15.746Z,722.00
2023-03-17T00:03:15.793Z,722.00
2023-03-17T00:04:15.788Z,724.00
2023-03-17T00:05:15.853Z,722.00
2023-03-17T00:06:15.890Z,720.00
2023-03-17T00:07:15.933Z,721.00
2023-03-17T00:08:15.961Z,722.00
2023-03-17T00:09:15.991Z,720.00
2023-03-17T00:10:16.008Z,719.00
2023-03-17T00:11:16.087Z,717.00
2023-03-17T00:12:16.109Z,717.00
2023-03-17T00:13:16.169Z,717.00
2023-03-17T00:14:16.264Z,716.00
2023-03-17T00:15:16.303Z,716.00
2023-03-17T00:16:16.361Z,715.00
2023-03-17T00:17:16.339Z,717.00
2023-03-17T00:18:16.408Z,715.00
2023-03-17T00:19:16.446Z,713.00
2023-03-17T00:20:16.529Z,713.00
2023-03-17T00:21:16.537Z,714.00
2023-03-17T00:22:16.633Z,715.00
2023-03-17T00:23:16.659Z,715.00
2023-03-17T00:24:16.658Z,715.00
2023-03-17T00:25:16.715Z,715.00
2023-03-17T00:26:16.762Z,712.00
2023-03-17T00:27:16.756Z,712.00
2023-03-17T00:28:16.772Z,710.00
2023-03-17T00:29:16.785Z,709.00
2023-03-17T00:30:16.790Z,706.00
2023-03-17T00:31:17.096Z,703.00
2023-03-17T00:32:16.942Z,706.00
2023-03-17T00:33:16.952Z,706.00
2023-03-17T00:34:17.004Z,707.00
2023-03-17T00:35:17.030Z,707.00
2023-03-17T00:36:17.052Z,708.00
2023-03-17T00:37:17.079Z,706.00
2023-03-17T00:38:17.107Z,705.00
2023-03-17T00:39:17.084Z,702.00
2023-03-17T00:40:17.129Z,701.00
2023-03-17T00:41:17.135Z,702.00
2023-03-17T00:42:17.193Z,703.00
2023-03-17T00:43:17.254Z,703.00
2023-03-17T00:44:17.276Z,702.00
2023-03-17T00:45:17.362Z,701.00
2023-03-17T00:46:17.401Z,700.00
2023-03-17T00:47:17.422Z,697.00
2023-03-17T00:48:17.389Z,697.00
2023-03-17T00:49:18.464Z,697.00
2023-03-17T00:50:17.456Z,697.00
2023-03-17T00:51:17.425Z,698.00
2023-03-17T01:06:18.480Z,695.00
2023-03-17T01:11:18.556Z,692.00
2023-03-17T01:24:18.471Z,687.00
2023-03-17T01:25:18.497Z,684.00
2023-03-17T01:26:18.452Z,683.00
2023-03-17T01:27:18.460Z,683.00
2023-03-17T01:28:18.588Z,685.00
2023-03-17T01:29:18.561Z,686.00
2023-03-17T01:30:18.565Z,684.00
2023-03-17T01:31:18.664Z,684.00
2023-03-17T01:32:18.613Z,684.00
2023-03-17T01:33:18.630Z,687.00
2023-03-17T01:34:18.703Z,687.00
2023-03-17T01:35:18.767Z,689.00
2023-03-17T01:36:18.829Z,691.00
2023-03-17T01:37:18.889Z,689.00
2023-03-17T01:38:19.001Z,689.00
2023-03-17T01:39:18.972Z,691.00
2023-03-17T01:40:19.000Z,688.00
2023-03-17T01:41:19.030Z,685.00
2023-03-17T01:42:19.088Z,684.00
2023-03-17T01:43:19.134Z,682.00
2023-03-17T01:44:19.192Z,681.00
2023-03-17T01:45:19.254Z,682.00
2023-03-17T01:46:19.288Z,683.00
2023-03-17T01:47:19.306Z,684.00
2023-03-17T01:48:19.348Z,682.00
2023-03-17T01:49:19.473Z,683.00
2023-03-17T01:50:19.503Z,683.00
2023-03-17T01:51:19.563Z,680.00
2023-03-17T01:52:19.592Z,680.00
2023-03-17T01:53:19.662Z,680.00
2023-03-17T01:54:19.726Z,680.00
2023-03-17T01:55:19.782Z,680.00
2023-03-17T01:56:19.849Z,682.00
2023-03-17T01:57:19.889Z,681.00
2023-03-17T01:58:19.948Z,680.00
2023-03-17T01:59:20.016Z,679.00
2023-03-17T02:00:20.070Z,678.00
2023-03-17T02:01:20.105Z,679.00
2023-03-17T02:02:20.168Z,680.00
2023-03-17T02:03:20.253Z,680.00
2023-03-17T02:04:20.401Z,679.00
2023-03-17T02:05:20.362Z,677.00
2023-03-17T02:06:20.412Z,675.00
2023-03-17T02:07:20.496Z,671.00
2023-03-17T02:08:20.546Z,671.00
2023-03-17T02:09:20.586Z,670.00
2023-03-17T02:10:20.649Z,669.00
2023-03-17T02:11:20.716Z,669.00
2023-03-17T02:12:20.757Z,671.00
2023-03-17T02:13:20.836Z,671.00
2023-03-17T02:14:20.869Z,670.00
2023-03-17T02:15:20.937Z,667.00
2023-03-17T02:16:20.973Z,666.00
2023-03-17T02:17:20.996Z,665.00
2023-03-17T02:18:21.059Z,665.00
2023-03-17T02:19:21.087Z,668.00
2023-03-17T02:20:21.114Z,667.00
2023-03-17T02:21:21.134Z,668.00
2023-03-17T02:22:21.146Z,667.00
2023-03-17T02:23:21.195Z,666.00
2023-03-17T02:24:21.250Z,666.00
2023-03-17T02:25:21.268Z,666.00
2023-03-17T02:26:21.294Z,666.00
2023-03-17T02:27:21.335Z,665.00
2023-03-17T02:28:21.366Z,666.00
2023-03-17T02:29:21.388Z,668.00
2023-03-17T02:30:21.434Z,667.00
2023-03-17T02:31:21.493Z,665.00
2023-03-17T02:32:21.526Z,666.00
2023-03-17T02:33:21.555Z,665.00
2023-03-17T02:34:21.547Z,664.00
2023-03-17T02:35:21.566Z,661.00
2023-03-17T02:36:21.638Z,662.00
2023-03-17T02:37:21.620Z,664.00
2023-03-17T02:38:21.668Z,663.00
2023-03-17T02:39:21.688Z,663.00
2023-03-17T02:40:21.707Z,662.00
2023-03-17T02:41:21.728Z,664.00
2023-03-17T02:42:21.772Z,666.00
2023-03-17T02:43:21.747Z,663.00
2023-03-17T02:44:21.801Z,662.00
2023-03-17T02:45:21.796Z,664.00
2023-03-17T02:46:21.926Z,663.00
2023-03-17T02:47:21.885Z,662.00
2023-03-17T02:48:21.899Z,660.00
2023-03-17T02:49:21.907Z,661.00
2023-03-17T02:50:21.912Z,659.00
2023-03-17T02:51:21.976Z,660.00
2023-03-17T02:52:21.906Z,657.00
2023-03-17T02:53:21.971Z,656.00
2023-03-17T02:54:21.995Z,653.00
2023-03-17T02:55:22.003Z,654.00
2023-03-17T02:56:21.993Z,653.00
2023-03-17T02:57:22.004Z,653.00
2023-03-17T02:58:22.012Z,653.00
2023-03-17T02:59:22.010Z,654.00
2023-03-17T03:00:22.051Z,657.00
2023-03-17T03:01:22.030Z,657.00
2023-03-17T03:02:22.066Z,654.00
2023-03-17T03:03:22.032Z,653.00
2023-03-17T03:04:22.044Z,654.00
2023-03-17T03:05:22.073Z,656.00
2023-03-17T03:06:22.063Z,654.00
2023-03-17T03:07:22.085Z,652.00
2023-03-17T03:08:22.093Z,651.00
2023-03-17T03:09:22.079Z,653.00
2023-03-17T03:10:22.083Z,652.00
2023-03-17T03:11:22.094Z,657.00
2023-03-17T03:12:22.123Z,656.00
2023-03-17T03:13:22.106Z,656.00
2023-03-17T03:14:22.112Z,655.00
2023-03-17T03:15:22.130Z,654.00
2023-03-17T03:16:22.168Z,655.00
2023-03-17T03:17:22.157Z,655.00
2023-03-17T03:18:22.138Z,655.00
2023-03-17T03:19:22.168Z,654.00
2023-03-17T03:20:22.191Z,655.00
2023-03-17T03:21:22.182Z,656.00
2023-03-17T03:22:22.171Z,659.00
2023-03-17T03:23:22.170Z,656.00
2023-03-17T03:24:22.166Z,657.00
2023-03-17T03:25:22.188Z,655.00
2023-03-17T03:26:22.187Z,654.00
2023-03-17T03:27:22.168Z,651.00
2023-03-17T03:28:22.171Z,651.00
2023-03-17T03:29:22.187Z,653.00
2023-03-17T03:30:22.193Z,650.00
2023-03-17T03:31:22.193Z,649.00
2023-03-17T03:32:22.188Z,650.00
2023-03-17T03:33:22.184Z,651.00
2023-03-17T03:34:22.188Z,652.00
2023-03-17T03:35:22.181Z,651.00
2023-03-17T03:36:22.184Z,650.00
2023-03-17T03:37:22.228Z,650.00
2023-03-17T03:38:22.191Z,652.00
2023-03-17T03:39:22.205Z,653.00
2023-03-17T03:40:22.168Z,655.00
2023-03-17T03:41:22.193Z,653.00
2023-03-17T03:42:22.208Z,656.00
2023-03-17T03:43:23.872Z,655.00
2023-03-17T03:44:22.205Z,656.00
2023-03-17T03:45:23.096Z,658.00
2023-03-17T03:46:22.223Z,659.00
2023-03-17T03:47:22.203Z,661.00
2023-03-17T03:48:22.215Z,660.00
2023-03-17T03:49:22.173Z,657.00
2023-03-17T03:50:22.208Z,657.00
2023-03-17T03:51:22.244Z,653.00
2023-03-17T03:52:22.189Z,653.00
2023-03-17T03:53:22.202Z,652.00
2023-03-17T03:54:22.190Z,653.00
2023-03-17T03:55:22.212Z,654.00
2023-03-17T03:56:22.243Z,652.00
2023-03-17T03:57:22.221Z,651.00
2023-03-17T03:58:22.199Z,651.00
2023-03-17T03:59:22.280Z,649.00
2023-03-17T04:00:22.311Z,650.00
2023-03-17T04:01:22.281Z,651.00
2023-03-17T04:02:22.342Z,648.00
2023-03-17T04:03:22.261Z,647.00
2023-03-17T04:04:22.319Z,645.00
2023-03-17T04:05:22.306Z,645.00
2023-03-17T04:06:22.355Z,646.00
2023-03-17T04:07:22.327Z,647.00
2023-03-17T04:08:22.337Z,644.00
2023-03-17T04:09:22.342Z,643.00
2023-03-17T04:10:22.394Z,644.00
2023-03-17T04:11:22.340Z,640.00
2023-03-17T04:12:22.374Z,638.00
2023-03-17T04:13:22.377Z,637.00
2023-03-17T04:14:22.383Z,639.00
2023-03-17T04:15:22.348Z,640.00
2023-03-17T04:16:22.467Z,643.00
2023-03-17T04:17:22.349Z,642.00
2023-03-17T04:18:22.344Z,641.00
2023-03-17T04:19:22.413Z,642.00
2023-03-17T04:20:22.421Z,639.00
2023-03-17T04:21:22.342Z,639.00
2023-03-17T04:22:22.386Z,640.00
2023-03-17T04:23:22.350Z,640.00
2023-03-17T04:24:22.379Z,640.00
2023-03-17T04:25:22.342Z,636.00
2023-03-17T04:26:22.356Z,637.00
2023-03-17T04:27:22.330Z,637.00
2023-03-17T04:28:22.331Z,635.00
2023-03-17T04:29:22.328Z,637.00
2023-03-17T04:30:22.353Z,639.00
2023-03-17T04:31:22.379Z,640.00
2023-03-17T04:32:22.359Z,641.00
2023-03-17T04:33:22.365Z,642.00
2023-03-17T04:34:22.355Z,643.00
2023-03-17T04:35:22.375Z,642.00
2023-03-17T04:36:22.350Z,641.00
2023-03-17T04:37:22.383Z,639.00
2023-03-17T04:38:22.342Z,640.00
2023-03-17T04:39:22.395Z,639.00
2023-03-17T04:40:22.348Z,637.00
2023-03-17T04:41:22.388Z,639.00
2023-03-17T04:42:22.364Z,641.00
2023-03-17T04:43:22.377Z,641.00
2023-03-17T04:44:22.391Z,639.00
2023-03-17T04:45:22.337Z,637.00
2023-03-17T04:46:22.380Z,637.00
2023-03-17T04:47:22.356Z,636.00
2023-03-17T04:48:22.407Z,636.00
2023-03-17T04:49:22.418Z,636.00
2023-03-17T04:50:22.426Z,638.00
2023-03-17T04:51:22.425Z,637.00
2023-03-17T04:52:22.428Z,635.00
2023-03-17T04:53:22.440Z,635.00
2023-03-17T04:54:22.461Z,634.00
2023-03-17T04:55:22.508Z,633.00
2023-03-17T04:56:22.501Z,634.00
2023-03-17T04:57:22.521Z,633.00
2023-03-17T04:58:30.546Z,633.00
2023-03-17T04:59:23.540Z,631.00
2023-03-17T05:00:22.507Z,632.00
2023-03-17T05:01:22.528Z,631.00
2023-03-17T05:02:22.539Z,630.00
2023-03-17T05:03:27.193Z,630.00
2023-03-17T05:04:31.165Z,631.00
2023-03-17T05:05:23.456Z,628.00
2023-03-17T05:06:22.471Z,630.00
2023-03-17T05:07:22.457Z,630.00
2023-03-17T05:08:22.480Z,629.00
2023-03-17T05:09:22.457Z,629.00
2023-03-17T05:10:22.437Z,628.00
2023-03-17T05:11:22.435Z,629.00
2023-03-17T05:12:22.480Z,630.00
2023-03-17T05:13:22.417Z,632.00
2023-03-17T05:14:22.398Z,631.00
2023-03-17T05:15:22.415Z,631.00
2023-03-17T05:16:22.421Z,630.00
2023-03-17T05:17:22.397Z,629.00
2023-03-17T05:18:22.408Z,629.00
2023-03-17T05:19:22.382Z,628.00
2023-03-17T05:20:22.379Z,628.00
2023-03-17T05:21:22.414Z,629.00
2023-03-17T05:22:22.362Z,629.00
2023-03-17T05:23:22.379Z,629.00
2023-03-17T05:24:22.359Z,632.00
2023-03-17T05:25:22.342Z,630.00
2023-03-17T05:26:22.336Z,631.00
2023-03-17T05:27:22.330Z,629.00
2023-03-17T05:28:22.343Z,628.00
2023-03-17T05:29:22.316Z,629.00
2023-03-17T05:30:22.327Z,629.00
2023-03-17T05:31:22.408Z,628.00
2023-03-17T05:32:22.311Z,625.00
2023-03-17T05:33:22.274Z,626.00
2023-03-17T05:34:22.298Z,626.00
2023-03-17T05:35:22.299Z,628.00
2023-03-17T05:36:22.263Z,629.00
2023-03-17T05:37:22.267Z,629.00
2023-03-17T05:38:22.276Z,628.00
2023-03-17T05:39:22.288Z,627.00
2023-03-17T05:40:23.849Z,628.00
2023-03-17T05:41:22.271Z,626.00
2023-03-17T05:42:22.263Z,626.00
2023-03-17T05:43:22.216Z,627.00
2023-03-17T05:44:22.246Z,628.00
2023-03-17T05:45:22.220Z,627.00
2023-03-17T05:46:22.223Z,628.00
2023-03-17T05:47:22.186Z,629.00
2023-03-17T05:48:22.214Z,632.00
2023-03-17T05:49:22.216Z,628.00
2023-03-17T05:50:22.169Z,628.00
2023-03-17T05:51:22.212Z,629.00
2023-03-17T05:52:22.174Z,629.00
2023-03-17T05:53:22.172Z,629.00
2023-03-17T05:54:22.180Z,629.00
2023-03-17T05:55:22.141Z,631.00
2023-03-17T05:56:22.140Z,630.00
2023-03-17T05:57:22.160Z,631.00
2023-03-17T05:58:22.162Z,633.00
2023-03-17T05:59:22.147Z,631.00
2023-03-17T06:00:29.580Z,632.00
2023-03-17T06:01:22.104Z,631.00
2023-03-17T06:02:22.162Z,628.00
2023-03-17T06:03:22.128Z,631.00
2023-03-17T06:04:22.088Z,630.00
2023-03-17T06:05:22.092Z,633.00
2023-03-17T06:06:22.085Z,632.00
2023-03-17T06:07:22.092Z,633.00
2023-03-17T06:08:22.070Z,633.00
2023-03-17T06:09:22.095Z,633.00
2023-03-17T06:10:22.075Z,632.00
2023-03-17T06:11:22.054Z,634.00
2023-03-17T06:12:22.021Z,634.00
2023-03-17T06:13:22.034Z,633.00
2023-03-17T06:14:22.041Z,634.00
2023-03-17T06:15:22.019Z,634.00
2023-03-17T06:16:22.065Z,634.00
2023-03-17T06:17:22.002Z,635.00
2023-03-17T06:18:21.996Z,636.00
2023-03-17T06:19:22.016Z,635.00
2023-03-17T06:20:21.985Z,634.00
2023-03-17T06:21:22.041Z,634.00
2023-03-17T06:22:22.031Z,632.00
2023-03-17T06:23:21.999Z,632.00
2023-03-17T06:24:21.953Z,628.00
2023-03-17T06:25:21.968Z,627.00
2023-03-17T06:26:21.993Z,627.00
2023-03-17T06:27:21.992Z,629.00
2023-03-17T06:28:22.679Z,629.00
2023-03-17T06:29:22.065Z,629.00
2023-03-17T06:30:22.081Z,631.00
2023-03-17T06:31:22.209Z,630.00
2023-03-17T06:32:22.155Z,630.00
2023-03-17T06:33:22.194Z,628.00
2023-03-17T06:34:22.193Z,629.00
2023-03-17T06:35:22.275Z,637.00
2023-03-17T06:36:22.327Z,640.00
2023-03-17T06:37:22.739Z,652.00
2023-03-17T06:38:22.378Z,964.00
2023-03-17T06:39:22.431Z,1379.00
2023-03-17T06:40:22.487Z,927.00
2023-03-17T06:41:22.553Z,873.00
2023-03-17T06:42:22.687Z,848.00
2023-03-17T06:43:22.555Z,2008.00
2023-03-17T06:44:22.622Z,1318.00
2023-03-17T06:45:30.019Z,1022.00
2023-03-17T06:46:22.645Z,1436.00
2023-03-17T06:47:25.803Z,1287.00
2023-03-17T06:48:22.622Z,1245.00
2023-03-17T06:49:22.623Z,1175.00
2023-03-17T06:50:22.581Z,1175.00
2023-03-17T06:51:22.665Z,1262.00
2023-03-17T06:52:22.558Z,1211.00
2023-03-17T06:53:22.588Z,1295.00
2023-03-17T06:54:22.583Z,1430.00
2023-03-17T06:55:22.585Z,1305.00
2023-03-17T06:56:29.869Z,1318.00
2023-03-17T06:57:23.529Z,1512.00
2023-03-17T06:58:22.541Z,1368.00
2023-03-17T06:59:23.051Z,1543.00
2023-03-17T07:00:22.547Z,1515.00
2023-03-17T07:01:22.540Z,1474.00
2023-03-17T07:02:22.776Z,1935.00
2023-03-17T07:03:22.511Z,1594.00
2023-03-17T07:04:22.618Z,1625.00
2023-03-17T07:05:22.473Z,1550.00
2023-03-17T07:06:22.562Z,1529.00
2023-03-17T07:07:22.608Z,1674.00
2023-03-17T07:08:22.651Z,1782.00
2023-03-17T07:09:22.616Z,2010.00
2023-03-17T07:10:22.704Z,1867.00
2023-03-17T07:11:22.727Z,1853.00
2023-03-17T07:12:22.728Z,1689.00
2023-03-17T07:13:22.805Z,1794.00
2023-03-17T07:14:22.811Z,2049.00
2023-03-17T07:15:22.788Z,1795.00
2023-03-17T07:16:22.839Z,1930.00
2023-03-17T07:17:22.845Z,2370.00
2023-03-17T07:18:22.870Z,1995.00
2023-03-17T07:19:22.865Z,1765.00
2023-03-17T07:20:22.940Z,1853.00
2023-03-17T07:21:22.889Z,1944.00
2023-03-17T07:22:22.933Z,1778.00
2023-03-17T07:23:23.176Z,1907.00
2023-03-17T07:24:22.988Z,1956.00
2023-03-17T07:25:22.917Z,2009.00
2023-03-17T07:26:22.918Z,1989.00
2023-03-17T07:27:23.257Z,1991.00
2023-03-17T07:28:22.952Z,1999.00
2023-03-17T07:29:22.984Z,2086.00
2023-03-17T07:30:22.940Z,2246.00
2023-03-17T07:31:23.054Z,2205.00
2023-03-17T07:32:22.951Z,2108.00
2023-03-17T07:33:23.041Z,2065.00
2023-03-17T07:34:23.118Z,2066.00
2023-03-17T07:35:23.198Z,2133.00
2023-03-17T07:36:23.211Z,2185.00
2023-03-17T07:37:23.274Z,2120.00
2023-03-17T07:38:23.284Z,2274.00
2023-03-17T07:39:23.310Z,2151.00
2023-03-17T07:40:23.341Z,2065.00
2023-03-17T07:41:23.326Z,2136.00
2023-03-17T07:42:23.453Z,2263.00
2023-03-17T07:43:23.409Z,2255.00
2023-03-17T07:44:23.428Z,2388.00
2023-03-17T07:45:23.464Z,2006.00
2023-03-17T07:46:23.545Z,1718.00
2023-03-17T07:47:23.489Z,1693.00
2023-03-17T07:48:23.495Z,1506.00
2023-03-17T07:49:40.049Z,1441.00
2023-03-17T07:50:24.536Z,1286.00
2023-03-17T07:51:23.518Z,1248.00
2023-03-17T07:52:23.572Z,1241.00
2023-03-17T07:53:23.523Z,1290.00
2023-03-17T07:54:23.500Z,1334.00
2023-03-17T07:55:23.500Z,1362.00
2023-03-17T07:56:23.551Z,1401.00
2023-03-17T07:57:23.657Z,1416.00
2023-03-17T07:58:23.505Z,1462.00
2023-03-17T07:59:23.448Z,1554.00
2023-03-17T08:00:23.463Z,1444.00
2023-03-17T08:01:23.463Z,1555.00
2023-03-17T08:02:23.529Z,1657.00
2023-03-17T08:03:23.470Z,1938.00
2023-03-17T08:04:23.441Z,1541.00
2023-03-17T08:05:23.442Z,1288.00
2023-03-17T08:06:23.464Z,1296.00
2023-03-17T08:07:23.422Z,1311.00
2023-03-17T08:08:23.503Z,1303.00
2023-03-17T08:09:24.289Z,1243.00
2023-03-17T08:10:23.478Z,1271.00
2023-03-17T08:11:23.554Z,1233.00
2023-03-17T08:12:23.494Z,1274.00
2023-03-17T08:13:23.456Z,1339.00
2023-03-17T08:14:23.423Z,1389.00
2023-03-17T08:15:23.491Z,1404.00
2023-03-17T08:16:23.610Z,1410.00
2023-03-17T08:17:23.677Z,1421.00
2023-03-17T08:18:23.739Z,1425.00
2023-03-17T08:19:23.919Z,1436.00
2023-03-17T08:20:23.877Z,1444.00
2023-03-17T08:21:23.862Z,1457.00
2023-03-17T08:22:23.941Z,1454.00
2023-03-17T08:23:24.257Z,1447.00
2023-03-17T08:24:24.046Z,1435.00
2023-03-17T08:25:24.063Z,1426.00
2023-03-17T08:26:24.135Z,1398.00
2023-03-17T08:27:24.229Z,1388.00
2023-03-17T08:28:24.227Z,1405.00
2023-03-17T08:29:24.337Z,1425.00
2023-03-17T08:30:24.361Z,1427.00
2023-03-17T08:31:24.480Z,1420.00
2023-03-17T08:32:24.451Z,1397.00
2023-03-17T08:33:24.503Z,1335.00
2023-03-17T08:34:24.522Z,1344.00
2023-03-17T08:35:24.575Z,1264.00
2023-03-17T08:36:24.630Z,1225.00
2023-03-17T08:37:24.666Z,1237.00
2023-03-17T08:38:24.741Z,1214.00
2023-03-17T08:39:24.808Z,1289.00
2023-03-17T08:40:24.857Z,1289.00
2023-03-17T08:41:24.945Z,1360.00
2023-03-17T08:42:24.971Z,1299.00
2023-03-17T08:43:25.044Z,1383.00
2023-03-17T08:44:25.044Z,1618.00
2023-03-17T08:45:25.102Z,1529.00
2023-03-17T08:46:25.163Z,1499.00
2023-03-17T08:47:25.177Z,1354.00
2023-03-17T08:48:25.296Z,1200.00
2023-03-17T08:49:25.231Z,1237.00
2023-03-17T08:50:25.335Z,1236.00
2023-03-17T08:51:25.272Z,1232.00
2023-03-17T08:52:25.338Z,1223.00
2023-03-17T08:53:25.416Z,1471.00
2023-03-17T08:54:25.471Z,1273.00
2023-03-17T08:55:25.478Z,1060.00
2023-03-17T08:56:25.484Z,1045.00
2023-03-17T08:57:25.497Z,1031.00
2023-03-17T08:58:25.512Z,1016.00
2023-03-17T08:59:25.571Z,1035.00
2023-03-17T09:00:25.537Z,919.00
2023-03-17T09:01:25.651Z,924.00
2023-03-17T09:02:25.742Z,868.00
2023-03-17T09:03:25.710Z,855.00
2023-03-17T09:04:25.772Z,851.00
2023-03-17T09:05:25.818Z,841.00
2023-03-17T09:06:25.893Z,830.00
2023-03-17T09:07:25.936Z,826.00
2023-03-17T09:08:25.998Z,816.00
2023-03-17T09:09:26.070Z,808.00
2023-03-17T09:10:26.147Z,843.00
2023-03-17T09:11:26.178Z,782.00
2023-03-17T09:12:26.263Z,781.00
2023-03-17T09:13:26.286Z,772.00
2023-03-17T09:14:26.344Z,773.00
2023-03-17T09:15:26.354Z,757.00
2023-03-17T09:16:26.367Z,742.00
2023-03-17T09:17:26.425Z,781.00
2023-03-17T09:18:26.760Z,759.00
2023-03-17T09:19:26.540Z,737.00
2023-03-17T09:20:26.521Z,734.00
2023-03-17T09:21:26.572Z,731.00
2023-03-17T09:22:26.652Z,775.00
2023-03-17T09:23:26.735Z,812.00
2023-03-17T09:24:26.677Z,783.00
2023-03-17T09:25:26.690Z,772.00
2023-03-17T09:26:26.777Z,776.00
2023-03-17T09:27:26.843Z,755.00
2023-03-17T09:28:26.891Z,740.00
2023-03-17T09:29:26.903Z,713.00
2023-03-17T09:30:27.020Z,710.00
2023-03-17T09:31:27.064Z,719.00
2023-03-17T09:32:27.112Z,713.00
2023-03-17T09:33:27.323Z,702.00
2023-03-17T09:34:27.171Z,694.00
2023-03-17T09:35:27.253Z,690.00
2023-03-17T09:36:27.297Z,688.00
2023-03-17T09:37:27.329Z,690.00
2023-03-17T09:38:27.955Z,686.00
2023-03-17T09:39:27.526Z,680.00
2023-03-17T09:40:28.534Z,671.00
2023-03-17T09:41:27.638Z,654.00
2023-03-17T09:42:27.547Z,641.00
2023-03-17T09:43:27.620Z,631.00
2023-03-17T09:44:27.563Z,631.00
2023-03-17T09:45:27.562Z,627.00
2023-03-17T09:46:27.618Z,622.00
2023-03-17T09:47:27.568Z,618.00
2023-03-17T09:48:27.632Z,618.00
2023-03-17T09:49:27.656Z,614.00
2023-03-17T09:50:27.589Z,614.00
2023-03-17T09:51:27.589Z,740.00
2023-03-17T09:52:27.609Z,723.00
2023-03-17T09:53:27.636Z,714.00
2023-03-17T09:54:27.804Z,732.00
2023-03-17T09:55:27.731Z,725.00
2023-03-17T09:56:27.777Z,710.00
2023-03-17T09:57:27.865Z,708.00
2023-03-17T09:58:27.895Z,734.00
2023-03-17T09:59:27.970Z,716.00
2023-03-17T10:00:28.043Z,710.00
2023-03-17T10:01:28.107Z,705.00
2023-03-17T10:02:28.157Z,705.00
2023-03-17T10:03:28.202Z,702.00
2023-03-17T10:04:29.192Z,702.00
2023-03-17T10:05:28.456Z,842.00
2023-03-17T10:06:28.369Z,703.00
2023-03-17T10:07:28.439Z,683.00
2023-03-17T10:08:31.631Z,678.00
2023-03-17T10:09:28.568Z,685.00
2023-03-17T10:10:28.916Z,700.00
2023-03-17T10:11:28.460Z,731.00
2023-03-17T10:12:28.419Z,715.00
2023-03-17T10:13:28.439Z,722.00
2023-03-17T10:14:28.408Z,719.00
2023-03-17T10:15:28.410Z,703.00
2023-03-17T10:16:28.449Z,706.00
2023-03-17T10:17:28.403Z,716.00
2023-03-17T10:18:28.425Z,732.00
2023-03-17T10:19:28.415Z,712.00
2023-03-17T10:20:28.373Z,727.00
2023-03-17T10:21:28.366Z,726.00
2023-03-17T10:22:28.339Z,722.00
2023-03-17T10:23:28.350Z,716.00
2023-03-17T10:24:28.362Z,709.00
2023-03-17T10:25:28.354Z,705.00
2023-03-17T10:26:28.363Z,703.00
2023-03-17T10:27:28.326Z,726.00
2023-03-17T10:28:28.337Z,744.00
2023-03-17T10:29:28.298Z,753.00
2023-03-17T10:30:28.302Z,764.00
2023-03-17T10:31:28.440Z,772.00
2023-03-17T10:32:28.320Z,777.00
2023-03-17T10:33:28.295Z,759.00
2023-03-17T10:34:28.269Z,766.00
2023-03-17T10:35:28.316Z,762.00
2023-03-17T10:36:28.264Z,819.00
2023-03-17T10:37:28.236Z,783.00
2023-03-17T10:38:28.262Z,772.00
2023-03-17T10:39:29.300Z,769.00
2023-03-17T10:40:28.422Z,767.00
2023-03-17T10:41:28.213Z,792.00
2023-03-17T10:42:28.283Z,823.00
2023-03-17T10:43:28.288Z,833.00
2023-03-17T10:44:28.328Z,838.00
2023-03-17T10:45:28.268Z,837.00
2023-03-17T10:46:28.260Z,846.00
2023-03-17T10:47:28.306Z,893.00
2023-03-17T10:48:28.303Z,940.00
2023-03-17T10:49:28.836Z,956.00
2023-03-17T10:50:28.489Z,958.00
2023-03-17T10:51:28.501Z,969.00
2023-03-17T10:52:28.505Z,970.00
2023-03-17T10:53:28.673Z,976.00
2023-03-17T10:54:28.816Z,989.00
2023-03-17T10:55:28.590Z,987.00
2023-03-17T10:56:28.647Z,991.00
2023-03-17T10:57:28.693Z,1002.00
2023-03-17T10:58:28.756Z,1038.00
2023-03-17T10:59:28.822Z,1028.00
2023-03-17T11:00:29.120Z,1022.00
2023-03-17T11:01:28.918Z,964.00
2023-03-17T11:02:28.990Z,983.00
2023-03-17T11:03:29.121Z,987.00
2023-03-17T11:04:29.111Z,983.00
2023-03-17T11:05:29.179Z,911.00
2023-03-17T11:06:29.163Z,931.00
2023-03-17T11:07:29.247Z,1132.00
2023-03-17T11:08:29.294Z,1060.00
2023-03-17T11:09:29.387Z,1069.00
2023-03-17T11:10:29.627Z,1082.00
2023-03-17T11:11:29.402Z,1095.00
2023-03-17T11:12:29.470Z,1156.00
2023-03-17T11:13:29.476Z,1144.00
2023-03-17T11:14:29.846Z,1162.00
2023-03-17T11:15:29.836Z,1165.00
2023-03-17T11:16:29.616Z,1150.00
2023-03-17T11:17:29.564Z,1143.00
2023-03-17T11:18:31.358Z,1141.00
2023-03-17T11:19:29.591Z,1140.00
2023-03-17T11:20:29.899Z,1138.00
2023-03-17T11:21:29.626Z,1137.00
2023-03-17T11:22:29.657Z,1134.00
2023-03-17T11:23:29.658Z,1134.00
2023-03-17T11:24:30.859Z,1132.00
2023-03-17T11:25:29.702Z,1129.00
2023-03-17T11:26:29.740Z,1124.00
2023-03-17T11:27:29.712Z,1120.00
2023-03-17T11:28:29.713Z,1114.00
2023-03-17T11:29:29.747Z,1112.00
2023-03-17T11:30:30.095Z,1110.00
2023-03-17T11:31:29.848Z,1110.00
2023-03-17T11:32:29.884Z,1107.00
2023-03-17T11:33:29.812Z,1106.00
2023-03-17T11:34:29.827Z,1101.00
2023-03-17T11:35:30.390Z,1101.00
2023-03-17T11:36:29.876Z,1102.00
2023-03-17T11:37:29.907Z,1100.00
2023-03-17T11:38:29.912Z,1098.00
2023-03-17T11:39:29.977Z,1101.00
2023-03-17T11:40:30.568Z,1103.00
2023-03-17T11:41:29.985Z,1103.00
2023-03-17T11:42:29.967Z,1103.00
2023-03-17T11:43:29.995Z,1100.00
2023-03-17T11:44:30.032Z,1099.00
2023-03-17T11:45:30.031Z,1097.00
2023-03-17T11:46:30.094Z,1094.00
2023-03-17T11:47:30.091Z,1095.00
2023-03-17T11:48:30.066Z,1094.00
2023-03-17T11:49:30.124Z,1093.00
2023-03-17T11:50:30.602Z,1091.00
2023-03-17T11:51:30.193Z,1089.00
2023-03-17T11:52:30.151Z,1088.00
2023-03-17T11:53:30.208Z,1088.00
2023-03-17T11:54:30.213Z,1085.00
2023-03-17T11:55:30.209Z,1086.00
2023-03-17T11:56:30.219Z,1086.00
2023-03-17T11:57:30.295Z,1082.00
2023-03-17T11:58:30.240Z,1075.00
2023-03-17T11:59:30.303Z,1070.00
2023-03-17T12:00:31.111Z,1069.00
2023-03-17T12:01:30.363Z,1064.00
2023-03-17T12:02:30.437Z,1057.00
2023-03-17T12:03:30.465Z,1052.00
2023-03-17T12:04:30.596Z,1042.00
2023-03-17T12:05:30.555Z,1029.00
2023-03-17T12:06:30.557Z,1020.00
2023-03-17T12:07:30.624Z,1016.00
2023-03-17T12:08:30.663Z,1012.00
2023-03-17T12:09:30.720Z,1009.00
2023-03-17T12:10:30.849Z,1009.00
2023-03-17T12:11:30.744Z,1014.00
2023-03-17T12:12:30.808Z,1017.00
2023-03-17T12:13:30.810Z,1019.00
2023-03-17T12:14:30.858Z,1020.00
2023-03-17T12:15:31.439Z,1021.00
2023-03-17T12:16:30.877Z,1026.00
2023-03-17T12:17:31.459Z,1030.00
2023-03-17T12:18:30.950Z,1034.00
2023-03-17T12:19:30.949Z,1035.00
2023-03-17T12:20:31.556Z,1033.00
2023-03-17T12:21:30.966Z,1032.00
2023-03-17T12:22:30.965Z,1034.00
2023-03-17T12:23:30.978Z,1038.00
2023-03-17T12:24:31.003Z,1041.00
2023-03-17T12:25:31.047Z,1045.00
2023-03-17T12:26:31.043Z,1051.00
2023-03-17T12:27:31.026Z,1057.00
2023-03-17T12:28:31.041Z,1057.00
2023-03-17T12:29:31.120Z,1059.00
2023-03-17T12:30:31.546Z,1061.00
2023-03-17T12:31:31.170Z,1064.00
2023-03-17T12:32:31.098Z,1064.00
2023-03-17T12:33:31.140Z,1069.00
2023-03-17T12:34:31.114Z,1072.00
2023-03-17T12:35:31.582Z,1073.00
2023-03-17T12:36:31.192Z,1073.00
2023-03-17T12:37:31.182Z,1076.00
2023-03-17T12:38:31.183Z,1078.00
2023-03-17T12:39:31.187Z,1085.00
2023-03-17T12:40:31.514Z,1090.00
2023-03-17T12:41:31.242Z,1093.00
2023-03-17T12:42:31.256Z,1093.00
2023-03-17T12:43:31.309Z,1092.00
2023-03-17T12:44:31.273Z,1091.00
2023-03-17T12:45:31.534Z,1085.00
2023-03-17T12:46:31.355Z,1081.00
2023-03-17T12:47:31.362Z,1079.00
2023-03-17T12:48:31.391Z,1081.00
2023-03-17T12:49:31.487Z,1077.00
2023-03-17T12:50:31.513Z,1077.00